createdAt,value
2022-08-19T00:02:13.328Z,18.17
2022-08-19T00:04:47.945Z,17.77
2022-08-19T00:07:17.490Z,18.20
2022-08-19T00:09:46.986Z,17.43
2022-08-19T00:12:16.594Z,16.67
2022-08-19T00:14:46.061Z,16.60
2022-08-19T00:17:15.778Z,18.77
2022-08-19T00:19:47.857Z,17.43
2022-08-19T00:22:18.865Z,17.60
2022-08-19T00:24:50.769Z,17.10
2022-08-19T00:27:25.910Z,17.90
2022-08-19T00:29:56.607Z,20.27
2022-08-19T00:32:26.320Z,17.30
2022-08-19T00:34:59.458Z,20.20
2022-08-19T00:37:29.426Z,21.03
2022-08-19T00:39:59.495Z,19.90
2022-08-19T00:42:29.394Z,18.27
2022-08-19T00:44:58.933Z,17.83
2022-08-19T00:47:28.477Z,19.60
2022-08-19T00:50:02.112Z,18.73
2022-08-19T00:52:34.587Z,19.27
2022-08-19T00:55:04.778Z,21.10
2022-08-19T00:57:37.527Z,22.10
2022-08-19T01:00:10.943Z,22.80
2022-08-19T01:02:40.469Z,22.43
2022-08-19T01:05:16.017Z,21.50
2022-08-19T01:07:45.968Z,21.20
2022-08-19T01:10:19.748Z,19.20
2022-08-19T01:12:49.942Z,21.27
2022-08-19T01:15:21.245Z,23.60
2022-08-19T01:17:51.370Z,26.80
2022-08-19T01:20:26.869Z,27.03
2022-08-19T01:23:01.537Z,28.73
2022-08-19T01:25:34.160Z,26.80
2022-08-19T01:28:10.671Z,26.53
2022-08-19T01:30:44.237Z,26.90
2022-08-19T01:33:14.019Z,26.37
2022-08-19T01:35:44.365Z,26.30
2022-08-19T01:38:24.860Z,25.20
2022-08-19T01:40:54.996Z,25.07
2022-08-19T01:43:24.505Z,23.83
2022-08-19T01:45:54.134Z,23.77
2022-08-19T01:48:24.603Z,24.13
2022-08-19T01:50:54.051Z,23.80
2022-08-19T01:53:26.645Z,24.30
2022-08-19T01:56:00.219Z,24.73
2022-08-19T01:58:33.483Z,24.33
2022-08-19T02:01:03.078Z,25.37
2022-08-19T02:03:32.650Z,24.60
2022-08-19T02:06:03.626Z,23.50
2022-08-19T02:08:37.469Z,24.30
2022-08-19T02:11:08.320Z,24.30
2022-08-19T02:13:38.341Z,23.80
2022-08-19T02:16:08.086Z,23.80
2022-08-19T02:18:37.566Z,23.27
2022-08-19T02:21:07.250Z,24.90
2022-08-19T02:23:39.718Z,30.50
2022-08-19T02:26:09.567Z,30.67
2022-08-19T02:28:39.094Z,26.90
2022-08-19T02:31:13.299Z,23.13
2022-08-19T02:33:42.822Z,28.73
2022-08-19T02:36:13.912Z,40.27
2022-08-19T02:38:47.163Z,27.97
2022-08-19T02:41:26.893Z,27.43
2022-08-19T02:44:26.283Z,27.37
2022-08-19T02:46:51.761Z,25.23
2022-08-19T02:49:22.590Z,29.70
2022-08-19T02:51:52.189Z,28.50
2022-08-19T02:54:24.339Z,29.50
2022-08-19T02:56:56.569Z,28.10
2022-08-19T02:59:27.434Z,28.67
2022-08-19T03:01:57.134Z,28.07
2022-08-19T03:04:26.699Z,27.93
2022-08-19T03:07:00.712Z,29.50
2022-08-19T03:09:34.741Z,28.13
2022-08-19T03:12:04.222Z,27.70
2022-08-19T03:14:34.942Z,27.40
2022-08-19T03:17:05.398Z,25.83
2022-08-19T03:19:35.530Z,25.10
2022-08-19T03:22:05.772Z,26.83
2022-08-19T03:24:37.866Z,25.17
2022-08-19T03:27:07.647Z,27.73
2022-08-19T03:29:43.161Z,31.43
2022-08-19T03:32:31.708Z,37.90
2022-08-19T03:35:03.373Z,23.90
2022-08-19T03:37:32.895Z,25.33
2022-08-19T03:40:06.555Z,28.90
2022-08-19T03:42:58.607Z,24.80
2022-08-19T03:45:25.588Z,24.77
2022-08-19T03:47:55.093Z,29.03
2022-08-19T03:50:25.418Z,25.57
2022-08-19T03:52:55.545Z,25.27
2022-08-19T03:55:27.595Z,25.33
2022-08-19T03:57:59.246Z,28.00
2022-08-19T04:00:28.973Z,24.60
2022-08-19T04:03:00.773Z,24.73
2022-08-19T04:05:32.191Z,24.50
2022-08-19T04:08:01.684Z,24.13
2022-08-19T04:10:33.713Z,22.00
2022-08-19T04:13:03.165Z,23.17
2022-08-19T04:15:36.693Z,26.37
2022-08-19T04:18:08.697Z,28.27
2022-08-19T04:20:43.131Z,26.33
2022-08-19T04:23:12.582Z,28.50
2022-08-19T04:25:47.251Z,27.00
2022-08-19T04:28:16.902Z,29.67
2022-08-19T04:30:48.462Z,29.70
2022-08-19T04:33:26.699Z,29.90
2022-08-19T04:35:59.186Z,29.80
2022-08-19T04:38:29.038Z,29.17
2022-08-19T04:41:13.610Z,28.37
2022-08-19T04:43:43.091Z,30.90
2022-08-19T04:46:28.520Z,29.00
2022-08-19T04:49:10.429Z,29.73
2022-08-19T04:51:44.678Z,29.80
2022-08-19T04:54:14.910Z,34.53
2022-08-19T04:56:53.897Z,32.60
2022-08-19T04:59:24.618Z,31.70
2022-08-19T05:01:54.165Z,34.80
2022-08-19T05:04:24.184Z,38.60
2022-08-19T05:06:54.337Z,36.50
2022-08-19T05:09:52.594Z,36.93
2022-08-19T05:12:21.896Z,37.60
2022-08-19T05:14:55.485Z,34.90
2022-08-19T05:17:27.598Z,37.13
2022-08-19T05:20:11.130Z,36.30
2022-08-19T05:22:40.672Z,35.67
2022-08-19T05:25:13.922Z,33.80
2022-08-19T05:27:46.394Z,34.93
2022-08-19T05:30:16.421Z,34.53
2022-08-19T05:32:46.302Z,34.37
2022-08-19T05:35:15.825Z,32.40
2022-08-19T05:37:45.298Z,29.60
2022-08-19T05:40:15.212Z,30.60
2022-08-19T05:42:47.520Z,30.27
2022-08-19T05:45:25.664Z,28.23
2022-08-19T05:47:55.219Z,28.00
2022-08-19T05:50:25.163Z,28.80
2022-08-19T05:52:54.813Z,27.60
2022-08-19T05:55:24.782Z,28.63
2022-08-19T05:57:56.836Z,26.97
2022-08-19T06:00:26.888Z,25.80
2022-08-19T06:02:57.577Z,26.13
2022-08-19T06:05:27.106Z,24.77
2022-08-19T06:07:56.558Z,25.03
2022-08-19T06:10:27.164Z,26.43
2022-08-19T06:12:59.439Z,28.87
2022-08-19T06:15:29.665Z,25.77
2022-08-19T06:17:59.122Z,25.13
2022-08-19T06:20:54.091Z,26.43
2022-08-19T06:23:18.121Z,25.70
2022-08-19T06:25:48.610Z,26.63
2022-08-19T06:28:21.175Z,26.63
2022-08-19T06:30:51.086Z,25.07
2022-08-19T06:33:20.601Z,27.97
2022-08-19T06:35:50.227Z,26.87
2022-08-19T06:38:21.486Z,27.63
2022-08-19T06:40:51.009Z,29.03
2022-08-19T06:43:23.622Z,28.50
2022-08-19T06:45:59.973Z,25.27
2022-08-19T06:48:30.669Z,24.77
2022-08-19T06:51:00.161Z,38.80
2022-08-19T06:53:30.504Z,25.37
2022-08-19T06:56:01.510Z,27.00
2022-08-19T06:58:35.573Z,26.07
2022-08-19T07:01:09.105Z,25.93
2022-08-19T07:03:40.605Z,25.40
2022-08-19T07:06:32.634Z,25.13
2022-08-19T07:09:02.210Z,24.63
2022-08-19T07:11:33.591Z,39.63
2022-08-19T07:14:07.555Z,25.70
2022-08-19T07:16:49.305Z,25.90
2022-08-19T07:19:19.774Z,24.97
2022-08-19T07:21:50.619Z,23.70
2022-08-19T07:24:20.793Z,24.40
2022-08-19T07:26:51.602Z,22.40
2022-08-19T07:29:28.446Z,21.37
2022-08-19T07:31:59.964Z,23.03
2022-08-19T07:34:31.213Z,21.50
2022-08-19T07:37:00.968Z,21.23
2022-08-19T07:39:32.653Z,20.50
2022-08-19T07:42:03.561Z,22.80
2022-08-19T07:44:35.648Z,21.00
2022-08-19T07:47:05.593Z,20.83
2022-08-19T07:49:35.129Z,20.80
2022-08-19T07:52:10.285Z,21.20
2022-08-19T07:54:41.837Z,21.03
2022-08-19T07:57:12.363Z,30.53
2022-08-19T07:59:44.453Z,20.60
2022-08-19T08:02:13.934Z,20.20
2022-08-19T08:04:55.846Z,21.23
2022-08-19T08:07:37.825Z,21.70
2022-08-19T08:10:13.999Z,31.60
2022-08-19T08:13:08.881Z,23.80
2022-08-19T08:15:43.859Z,21.63
2022-08-19T08:18:13.425Z,21.97
2022-08-19T08:20:44.144Z,20.93
2022-08-19T08:23:30.231Z,33.13
2022-08-19T08:26:02.942Z,26.10
2022-08-19T08:28:33.057Z,28.93
2022-08-19T08:31:09.356Z,19.30
2022-08-19T08:33:39.281Z,18.53
2022-08-19T08:36:12.518Z,27.00
2022-08-19T08:38:42.070Z,29.57
2022-08-19T08:41:20.035Z,22.73
2022-08-19T08:43:52.052Z,19.33
2022-08-19T08:46:30.683Z,19.97
2022-08-19T08:49:09.752Z,20.23
2022-08-19T08:54:37.275Z,24.23
2022-08-19T08:57:08.993Z,22.87
2022-08-19T08:59:42.189Z,23.97
2022-08-19T09:02:14.273Z,19.63
2022-08-19T09:04:43.746Z,26.77
2022-08-19T09:07:35.092Z,20.87
2022-08-19T09:10:08.485Z,20.60
2022-08-19T09:12:45.703Z,23.70
2022-08-19T09:15:17.631Z,20.00
2022-08-19T09:17:50.194Z,22.40
2022-08-19T09:20:23.514Z,18.57
2022-08-19T09:22:55.682Z,19.60
2022-08-19T09:25:29.394Z,20.67
2022-08-19T09:28:05.616Z,19.03
2022-08-19T09:30:43.231Z,21.13
2022-08-19T09:33:15.370Z,17.70
2022-08-19T09:35:53.705Z,19.87
2022-08-19T09:38:23.725Z,37.47
2022-08-19T09:40:53.354Z,17.03
2022-08-19T09:43:32.594Z,18.97
2022-08-19T09:46:03.738Z,19.70
2022-08-19T09:48:35.909Z,18.90
2022-08-19T09:51:11.912Z,17.80
2022-08-19T09:53:42.285Z,18.43
2022-08-19T09:56:11.929Z,18.27
2022-08-19T09:58:41.932Z,19.47
2022-08-19T10:01:11.746Z,21.83
2022-08-19T10:03:43.889Z,20.07
2022-08-19T10:06:14.940Z,19.77
2022-08-19T10:08:50.255Z,19.43
2022-08-19T10:11:28.650Z,19.27
2022-08-19T10:14:06.832Z,21.40
2022-08-19T10:16:39.547Z,20.73
2022-08-19T10:19:12.333Z,17.53
2022-08-19T10:21:41.878Z,19.53
2022-08-19T10:24:12.619Z,19.63
2022-08-19T10:26:45.892Z,18.83
2022-08-19T10:29:32.969Z,18.57
2022-08-19T10:32:03.386Z,18.80
2022-08-19T10:34:36.253Z,17.90
2022-08-19T10:37:28.813Z,18.27
2022-08-19T10:40:00.684Z,20.33
2022-08-19T10:42:32.142Z,19.10
2022-08-19T10:45:01.863Z,23.03
2022-08-19T10:47:34.353Z,18.93
2022-08-19T10:50:20.097Z,19.17
2022-08-19T10:52:50.959Z,17.83
2022-08-19T10:55:34.732Z,17.73
2022-08-19T10:58:04.527Z,21.50
2022-08-19T11:00:34.595Z,19.80
2022-08-19T11:03:04.029Z,23.17
2022-08-19T11:05:40.227Z,18.13
2022-08-19T11:08:22.988Z,23.43
2022-08-19T11:10:54.697Z,17.50
2022-08-19T11:13:24.373Z,16.67
2022-08-19T11:16:04.004Z,34.40
2022-08-19T11:18:37.317Z,19.47
2022-08-19T11:21:15.668Z,15.33
2022-08-19T11:23:45.118Z,19.00
2022-08-19T11:26:14.702Z,17.03
2022-08-19T11:28:44.965Z,17.87
2022-08-19T11:31:15.466Z,17.60
2022-08-19T11:33:47.645Z,15.60
2022-08-19T11:36:21.515Z,14.93
2022-08-19T11:38:51.474Z,13.37
2022-08-19T11:41:23.902Z,16.80
2022-08-19T11:43:54.982Z,13.23
2022-08-19T11:46:25.833Z,12.70
2022-08-19T11:48:55.685Z,25.87
2022-08-19T11:51:28.981Z,13.73
2022-08-19T11:53:59.593Z,12.60
2022-08-19T11:56:30.943Z,13.50
2022-08-19T11:59:00.713Z,11.67
2022-08-19T12:01:30.218Z,12.23
2022-08-19T12:04:00.753Z,13.10
2022-08-19T12:06:35.769Z,14.00
2022-08-19T12:09:08.283Z,12.30
2022-08-19T12:11:37.840Z,12.70
2022-08-19T12:14:07.593Z,13.63
2022-08-19T12:16:40.997Z,11.87
2022-08-19T12:19:21.156Z,14.80
2022-08-19T12:21:57.996Z,13.83
2022-08-19T12:24:27.464Z,14.00
2022-08-19T12:27:00.931Z,13.03
2022-08-19T12:29:33.366Z,13.20
2022-08-19T12:32:04.034Z,13.70
2022-08-19T12:34:35.099Z,20.30
2022-08-19T12:37:08.821Z,13.67
2022-08-19T12:39:39.820Z,15.63
2022-08-19T12:42:09.857Z,11.50
2022-08-19T12:44:40.685Z,13.90
2022-08-19T12:47:14.221Z,11.63
2022-08-19T12:49:53.339Z,16.33
2022-08-19T12:52:28.131Z,12.40
2022-08-19T12:54:59.126Z,13.97
2022-08-19T12:57:33.499Z,12.53
2022-08-19T13:00:06.082Z,13.80
2022-08-19T13:02:38.871Z,13.00
2022-08-19T13:05:12.251Z,15.50
2022-08-19T13:07:44.884Z,13.10
2022-08-19T13:10:16.190Z,12.87
2022-08-19T13:12:46.058Z,11.40
2022-08-19T13:15:17.610Z,12.20
2022-08-19T13:17:49.201Z,13.13
2022-08-19T13:20:19.987Z,15.00
2022-08-19T13:22:52.521Z,11.97
2022-08-19T13:25:22.661Z,9.80
2022-08-19T13:27:53.174Z,10.80
2022-08-19T13:30:36.139Z,11.07
2022-08-19T13:33:15.588Z,12.40
2022-08-19T13:35:48.964Z,13.10
2022-08-19T13:38:23.654Z,12.50
2022-08-19T13:40:55.120Z,11.10
2022-08-19T13:43:26.983Z,13.20
2022-08-19T13:45:57.985Z,10.80
2022-08-19T13:48:28.989Z,14.00
2022-08-19T13:50:59.585Z,13.10
2022-08-19T13:53:31.883Z,12.60
2022-08-19T13:56:01.382Z,11.77
2022-08-19T13:58:32.575Z,20.17
2022-08-19T14:01:02.863Z,14.23
2022-08-19T14:03:32.394Z,11.73
2022-08-19T14:06:02.355Z,14.03
2022-08-19T14:08:34.419Z,10.33
2022-08-19T14:11:06.565Z,10.50
2022-08-19T14:13:36.453Z,13.73
2022-08-19T14:16:10.878Z,13.10
2022-08-19T14:18:40.616Z,14.70
2022-08-19T14:21:10.946Z,10.90
2022-08-19T14:23:43.009Z,11.83
2022-08-19T14:26:14.465Z,12.10
2022-08-19T14:28:44.603Z,10.53
2022-08-19T14:31:17.614Z,18.20
2022-08-19T14:33:47.204Z,14.70
2022-08-19T14:36:16.755Z,18.13
2022-08-19T14:38:49.844Z,15.53
2022-08-19T14:41:21.378Z,14.80
2022-08-19T14:43:52.302Z,14.67
2022-08-19T14:46:24.145Z,14.70
2022-08-19T14:48:55.382Z,13.60
2022-08-19T14:51:27.895Z,14.50
2022-08-19T14:54:00.436Z,41.83
2022-08-19T14:56:32.941Z,29.70
2022-08-19T14:59:02.909Z,14.17
2022-08-19T15:01:32.388Z,17.23
2022-08-19T15:04:01.909Z,13.90
2022-08-19T15:06:32.747Z,13.53
2022-08-19T15:09:04.818Z,15.00
2022-08-19T15:11:35.111Z,12.67
2022-08-19T15:14:06.310Z,13.10
2022-08-19T15:16:36.433Z,13.87
2022-08-19T15:19:05.893Z,14.60
2022-08-19T15:21:35.370Z,14.50
2022-08-19T15:24:08.686Z,13.57
2022-08-19T15:26:38.196Z,12.80
2022-08-19T15:29:08.157Z,14.20
2022-08-19T15:31:38.338Z,13.40
2022-08-19T15:34:08.553Z,11.20
2022-08-19T15:36:38.385Z,12.60
2022-08-19T15:39:11.018Z,12.43
2022-08-19T15:41:41.178Z,13.40
2022-08-19T15:44:14.600Z,11.20
2022-08-19T15:46:45.323Z,10.30
2022-08-19T15:49:16.397Z,11.80
2022-08-19T15:51:51.938Z,12.30
2022-08-19T15:54:24.649Z,12.60
2022-08-19T15:57:08.339Z,13.00
2022-08-19T15:59:51.911Z,10.10
2022-08-19T16:02:37.127Z,11.10
2022-08-19T16:05:35.993Z,10.13
2022-08-19T16:08:05.525Z,11.40
2022-08-19T16:10:38.473Z,11.70
2022-08-19T16:13:09.473Z,11.97
2022-08-19T16:15:42.051Z,13.20
2022-08-19T16:18:11.605Z,13.50
2022-08-19T16:20:41.116Z,14.00
2022-08-19T16:23:11.138Z,13.30
2022-08-19T16:25:43.178Z,11.47
2022-08-19T16:28:12.906Z,11.73
2022-08-19T16:30:48.762Z,11.83
2022-08-19T16:33:22.992Z,12.57
2022-08-19T16:36:00.319Z,13.90
2022-08-19T16:38:37.658Z,12.90
2022-08-19T16:41:09.829Z,12.53
2022-08-19T16:43:40.078Z,11.07
2022-08-19T16:46:10.002Z,11.27
2022-08-19T16:48:43.023Z,12.60
2022-08-19T16:51:13.042Z,11.40
2022-08-19T16:53:45.189Z,12.37
2022-08-19T16:56:17.930Z,10.40
2022-08-19T16:58:47.763Z,12.47
2022-08-19T17:01:17.328Z,11.20
2022-08-19T17:03:48.541Z,11.37
2022-08-19T17:06:20.756Z,10.60
2022-08-19T17:08:51.618Z,10.97
2022-08-19T17:11:24.641Z,12.57
2022-08-19T17:13:55.431Z,12.90
2022-08-19T17:16:27.214Z,12.90
2022-08-19T17:18:58.406Z,12.17
2022-08-19T17:21:31.910Z,13.53
2022-08-19T17:24:02.454Z,12.83
2022-08-19T17:26:35.001Z,11.00
2022-08-19T17:29:04.598Z,12.27
2022-08-19T17:31:34.780Z,12.37
2022-08-19T17:34:04.286Z,12.03
2022-08-19T17:36:35.382Z,12.23
2022-08-19T17:39:06.037Z,11.37
2022-08-19T17:41:38.193Z,11.10
2022-08-19T17:44:09.651Z,12.50
2022-08-19T17:46:39.134Z,12.40
2022-08-19T17:49:08.637Z,12.07
2022-08-19T17:51:45.094Z,13.13
2022-08-19T17:54:17.187Z,11.17
2022-08-19T17:56:50.057Z,12.70
2022-08-19T17:59:19.584Z,13.80
2022-08-19T18:01:54.478Z,15.17
2022-08-19T18:04:25.508Z,12.53
2022-08-19T18:06:56.142Z,13.87
2022-08-19T18:09:27.652Z,15.10
2022-08-19T18:12:00.402Z,13.07
2022-08-19T18:14:33.787Z,13.00
2022-08-19T18:17:06.255Z,13.37
2022-08-19T18:19:41.364Z,33.33
2022-08-19T18:22:24.998Z,17.40
2022-08-19T18:24:54.769Z,16.57
2022-08-19T18:27:27.795Z,18.90
2022-08-19T18:29:59.639Z,16.10
2022-08-19T18:32:31.842Z,15.17
2022-08-19T18:35:03.041Z,14.97
2022-08-19T18:37:32.634Z,14.83
2022-08-19T18:40:14.669Z,14.00
2022-08-19T18:43:02.150Z,14.27
2022-08-19T18:45:44.322Z,19.33
2022-08-19T18:48:28.138Z,13.57
2022-08-19T18:50:59.735Z,15.10
2022-08-19T18:53:30.563Z,32.83
2022-08-19T18:56:00.502Z,32.73
2022-08-19T18:58:34.804Z,17.00
2022-08-19T19:01:11.489Z,16.63
2022-08-19T19:03:42.861Z,15.60
2022-08-19T19:06:12.342Z,16.80
2022-08-19T19:08:42.030Z,16.73
2022-08-19T19:11:11.994Z,16.33
2022-08-19T19:13:46.929Z,15.87
2022-08-19T19:16:16.408Z,17.27
2022-08-19T19:18:45.877Z,17.00
2022-08-19T19:21:15.333Z,17.77
2022-08-19T19:23:44.801Z,17.50
2022-08-19T19:26:15.861Z,20.07
2022-08-19T19:28:48.463Z,19.10
2022-08-19T19:31:19.962Z,17.33
2022-08-19T19:33:49.609Z,18.70
2022-08-19T19:36:19.172Z,19.70
2022-08-19T19:38:49.106Z,18.90
2022-08-19T19:41:21.065Z,19.07
2022-08-19T19:44:09.828Z,18.57
2022-08-19T19:46:45.299Z,19.93
2022-08-19T19:49:15.325Z,19.50
2022-08-19T19:51:45.708Z,18.70
2022-08-19T19:54:18.662Z,18.43
2022-08-19T19:56:51.217Z,18.80
2022-08-19T19:59:23.631Z,18.60
2022-08-19T20:01:54.613Z,19.97
2022-08-19T20:04:24.128Z,20.63
2022-08-19T20:06:53.630Z,17.70
2022-08-19T20:09:20.554Z,18.63
2022-08-19T20:11:53.659Z,17.90
2022-08-19T20:14:28.241Z,19.23
2022-08-19T20:16:59.135Z,23.90
2022-08-19T20:19:31.260Z,25.20
2022-08-19T20:22:00.755Z,25.83
2022-08-19T20:24:35.326Z,21.70
2022-08-19T20:27:06.846Z,21.53
2022-08-19T20:29:41.451Z,21.30
2022-08-19T20:32:11.604Z,21.10
2022-08-19T20:34:43.642Z,20.87
2022-08-19T20:37:13.114Z,21.67
2022-08-19T20:39:42.634Z,22.23
2022-08-19T20:42:12.175Z,21.37
2022-08-19T20:44:44.194Z,23.03
2022-08-19T20:47:13.874Z,26.97
2022-08-19T20:49:43.399Z,20.93
2022-08-19T20:52:12.859Z,24.07
2022-08-19T20:54:42.354Z,23.30
2022-08-19T20:57:11.835Z,59.20
2022-08-19T20:59:44.278Z,45.93
2022-08-19T21:02:13.829Z,29.40
2022-08-19T21:04:43.447Z,32.10
2022-08-19T21:07:12.943Z,37.50
2022-08-19T21:09:42.591Z,27.03
2022-08-19T21:12:14.350Z,27.73
2022-08-19T21:14:47.194Z,23.20
2022-08-19T21:17:17.013Z,23.10
2022-08-19T21:19:46.466Z,26.40
2022-08-19T21:22:15.991Z,25.40
2022-08-19T21:24:45.872Z,27.53
2022-08-19T21:38:50.716Z,24.43
2022-08-19T21:41:20.195Z,28.90
2022-08-19T21:43:49.659Z,22.40
2022-08-19T21:46:19.174Z,23.20
2022-08-19T21:48:48.644Z,23.03
2022-08-19T21:51:18.349Z,24.23
2022-08-19T21:53:53.520Z,23.23
2022-08-19T21:56:23.313Z,22.17
2022-08-19T21:58:56.629Z,23.03
2022-08-19T22:01:26.500Z,24.50
2022-08-19T22:03:56.036Z,23.67
2022-08-19T22:06:26.074Z,22.80
2022-08-19T22:08:58.250Z,23.13
2022-08-19T22:11:29.206Z,28.50
2022-08-19T22:13:59.233Z,22.07
2022-08-19T22:16:28.745Z,23.73
2022-08-19T22:18:59.288Z,24.10
2022-08-19T22:21:40.404Z,24.37
2022-08-19T22:24:13.302Z,30.57
2022-08-19T22:26:42.789Z,37.77
2022-08-19T22:29:15.771Z,27.53
2022-08-19T22:31:54.572Z,30.10
2022-08-19T22:34:28.617Z,25.07
2022-08-19T22:36:58.553Z,32.37
2022-08-19T22:39:30.594Z,31.33
2022-08-19T22:42:00.086Z,30.87
2022-08-19T22:44:29.699Z,29.80
2022-08-19T22:46:59.211Z,29.20
2022-08-19T22:49:28.747Z,27.87
2022-08-19T22:52:10.706Z,26.60
2022-08-19T22:54:42.806Z,26.90
2022-08-19T22:57:12.326Z,27.53
2022-08-19T22:59:41.903Z,26.93
2022-08-19T23:02:12.234Z,27.13
2022-08-19T23:04:41.701Z,27.50
2022-08-19T23:07:11.155Z,27.30
2022-08-19T23:09:43.267Z,25.77
2022-08-19T23:12:13.877Z,25.93
2022-08-19T23:14:43.703Z,26.23
2022-08-19T23:17:14.181Z,26.63
2022-08-19T23:19:43.787Z,27.50
2022-08-19T23:22:13.256Z,24.90
2022-08-19T23:24:45.402Z,27.20
2022-08-19T23:27:27.409Z,25.40
2022-08-19T23:30:09.358Z,26.40
2022-08-19T23:32:38.914Z,26.00
2022-08-19T23:35:09.566Z,25.00
2022-08-19T23:37:39.318Z,27.10
2022-08-19T23:40:12.724Z,24.30
2022-08-19T23:42:44.398Z,32.90
2022-08-19T23:45:14.855Z,23.30
2022-08-19T23:47:51.030Z,24.33
2022-08-19T23:50:23.334Z,23.47
2022-08-19T23:52:55.701Z,24.30
2022-08-19T23:55:32.246Z,24.80
2022-08-19T23:58:01.883Z,25.53
